CW0354 Weather Reports


Display with metric or nautical units.
time (UTC)temp
F
wind
direction
speed
MPH
gust
MPH
rain 1hr
in
rain 24hr
in
rain mn
in
humidity
%
barometer
mb
20210726003903 76 217 3.0 9.0 0.00 0.15 0.15 77 1011.0
20210726003403 76 264 5.0 9.0 0.00 0.15 0.15 77 1010.9
20210726002904 76 207 6.0 13.0 0.00 0.15 0.15 76 1010.9
20210726002403 77 235 6.0 13.0 0.00 0.15 0.15 76 1010.9
20210726001903 77 244 5.0 13.0 0.00 0.15 0.15 76 1010.9
20210726000904 77 234 7.0 17.0 0.00 0.15 0.15 75 1010.8
20210726000403 77 232 10.0 18.0 0.00 0.15 0.15 74 1010.8
20210725235913 77 226 9.0 16.0 0.00 0.15 0.15 74 1010.7
20210725235404 77 234 9.0 16.0 0.00 0.15 0.15 74 1010.8
20210725233903 78 237 9.0 15.0 0.00 0.15 0.15 72 1010.9
20210725232903 79 229 7.0 15.0 0.00 0.15 0.15 71 1010.6
20210725232404 79 231 9.0 16.0 0.00 0.15 0.15 70 1010.5
20210725231904 79 236 7.0 16.0 0.00 0.15 0.15 70 1010.5
20210725231403 79 242 8.0 14.0 0.00 0.15 0.15 69 1010.5
20210725224903 80 226 9.0 21.0 0.00 0.15 0.15 66 1010.7
20210725224403 81 235 9.0 16.0 0.00 0.15 0.15 66 1010.7
20210725223904 81 230 10.0 17.0 0.00 0.15 0.15 66 1010.7
20210725223403 81 235 7.0 15.0 0.00 0.15 0.15 66 1010.7
20210725221403 81 237 8.0 14.0 0.00 0.15 0.15 65 1010.9
20210725220403 82 233 11.0 17.0 0.00 0.15 0.15 64 1010.8
20210725215404 82 233 10.0 18.0 0.00 0.15 0.15 64 1010.9
20210725214903 82 237 9.0 15.0 0.00 0.15 0.15 64 1010.9
20210725212404 83 226 7.0 18.0 0.00 0.15 0.15 62 1011.0
20210725211403 83 231 7.0 16.0 0.00 0.15 0.15 62 1011.1
20210725204404 82 231 7.0 16.0 0.00 0.15 0.15 64 1011.4
20210725203904 81 223 7.0 14.0 0.00 0.15 0.15 65 1011.4
20210725202903 80 224 8.0 15.0 0.00 0.15 0.15 67 1011.4
20210725201904 80 234 6.0 14.0 0.00 0.15 0.15 66 1011.5
20210725200903 81 230 8.0 17.0 0.00 0.15 0.15 65 1011.5
20210725200403 81 236 7.0 14.0 0.00 0.15 0.15 65 1011.5
20210725194902 81 225 6.0 13.0 0.00 0.15 0.15 66 1011.5
20210725193902 80 232 9.0 17.0 0.00 0.15 0.15 67 1011.5
20210725191902 81 224 9.0 14.0 0.00 0.15 0.15 66 1011.7
20210725190402 82 233 9.0 16.0 0.00 0.15 0.15 64 1011.8
20210725185902 82 229 7.0 15.0 0.00 0.15 0.15 64 1011.9
20210725185403 82 227 9.0 18.0 0.00 0.15 0.15 64 1011.9
20210725183902 82 223 8.0 18.0 0.00 0.15 0.15 65 1011.8
20210725182402 82 226 9.0 16.0 0.00 0.15 0.15 66 1011.8
20210725181902 81 224 8.0 18.0 0.00 0.15 0.15 67 1011.9
20210725180902 81 233 9.0 23.0 0.00 0.15 0.15 69 1011.9
20210725180402 80 229 6.0 17.0 0.00 0.15 0.15 70 1011.9
20210725175902 80 228 9.0 16.0 0.00 0.15 0.15 71 1012.0
20210725174902 79 231 9.0 17.0 0.00 0.15 0.15 71 1012.2
20210725173903 79 233 10.0 18.0 0.00 0.15 0.15 72 1012.2
20210725173402 79 230 10.0 15.0 0.00 0.15 0.15 73 1012.2
20210725171902 78 226 10.0 18.0 0.00 0.15 0.15 74 1012.3
20210725170902 78 232 11.0 18.0 0.00 0.15 0.15 75 1012.4
20210725170403 77 229 10.0 20.0 0.00 0.15 0.15 75 1012.4
20210725165409 77 233 10.0 20.0 0.00 0.15 0.15 75 1012.5
20210725164402 77 231 9.0 16.0 0.00 0.15 0.15 77 1012.4
20210725163902 76 219 9.0 18.0 0.00 0.15 0.15 78 1012.4
20210725163402 76 233 10.0 18.0 0.00 0.15 0.15 78 1012.5
20210725162902 76 223 9.0 17.0 0.00 0.15 0.15 79 1012.5
20210725162402 75 222 7.0 14.0 0.00 0.15 0.15 80 1012.6
20210725160902 75 221 9.0 15.0 0.00 0.15 0.15 80 1012.8
20210725160402 74 218 9.0 18.0 0.00 0.15 0.15 81 1012.8
20210725155902 74 213 9.0 15.0 0.00 0.15 0.15 81 1012.9
20210725154902 74 215 9.0 15.0 0.00 0.15 0.15 81 1013.0
20210725153902 73 224 9.0 18.0 0.00 0.15 0.15 81 1013.1
20210725151902 72 214 7.0 12.0 0.00 0.15 0.15 81 1013.5
20210725151402 72 217 7.0 17.0 0.00 0.15 0.15 81 1013.5
20210725150903 72 199 14.0 22.0 0.00 0.15 0.15 81 1013.3
20210725150402 72 214 12.0 22.0 0.00 0.15 0.15 81 1013.4
20210725145402 72 202 12.0 20.0 0.00 0.15 0.15 81 1013.4
20210725144902 72 218 10.0 17.0 0.00 0.15 0.15 81 1013.4
20210725144402 71 209 11.0 21.0 0.00 0.15 0.15 80 1013.6
20210725143403 72 218 9.0 16.0 0.00 0.15 0.15 80 1013.7
20210725142402 72 200 11.0 21.0 0.00 0.15 0.15 79 1013.8
20210725140402 72 208 8.0 17.0 0.00 0.15 0.15 79 1014.0
20210725135902 72 213 8.0 16.0 0.00 0.15 0.15 78 1013.7
20210725134903 71 204 7.0 15.0 0.00 0.15 0.15 78 1014.1
20210725133902 71 207 10.0 17.0 0.00 0.15 0.15 78 1014.0
20210725133402 71 207 10.0 17.0 0.00 0.15 0.15 77 1014.2
20210725130902 71 217 11.0 18.0 0.00 0.15 0.15 74 1014.6
20210725130402 71 210 9.0 17.0 0.00 0.15 0.15 74 1014.5
20210725125402 71 208 13.0 20.0 0.03 0.15 0.15 75 1014.6
20210725124902 71 210 9.0 16.0 0.03 0.15 0.15 76 1014.5
20210725123902 70 212 9.0 16.0 0.03 0.15 0.15 76 1014.7
20210725123402 70 203 9.0 16.0 0.03 0.15 0.15 76 1014.7
20210725122902 69 213 10.0 17.0 0.03 0.15 0.15 76 1014.6
20210725121902 69 213 11.0 20.0 0.03 0.15 0.15 77 1014.7
20210725121402 69 207 10.0 18.0 0.03 0.15 0.15 78 1014.8
20210725120902 69 212 11.0 20.0 0.03 0.15 0.15 79 1014.8
20210725115902 69 206 10.0 20.0 0.06 0.12 0.12 80 1014.9
20210725114902 69 209 9.0 16.0 0.06 0.12 0.12 80 1015.0
20210725113902 69 214 10.0 20.0 0.06 0.12 0.12 80 1015.1
20210725112903 68 218 9.0 17.0 0.06 0.12 0.12 78 1015.1
20210725112402 68 217 11.0 22.0 0.06 0.12 0.12 78 1015.2
20210725111403 69 219 10.0 21.0 0.06 0.12 0.12 80 1015.2
20210725105902 69 220 10.0 18.0 0.06 0.06 0.06 80 1015.2
20210725103902 69 219 10.0 17.0 0.06 0.06 0.06 80 1015.1
20210725103402 69 215 9.0 16.0 0.06 0.06 0.06 81 1015.1
20210725101902 69 231 4.0 10.0 0.06 0.06 0.06 80 1015.2
20210725100902 69 221 4.0 10.0 0.06 0.06 0.06 80 1015.4
20210725100402 69 243 6.0 12.0 0.06 0.06 0.06 80 1015.4
20210725095902 70 236 5.0 16.0 0.00 0.00 0.00 80 1015.4
20210725095405 70 260 5.0 14.0 0.00 0.00 0.00 80 1015.4
20210725094403 71 272 0.0 6.0 0.00 0.00 0.00 78 1015.2
20210725093903 71 283 1.0 8.0 0.00 0.00 0.00 77 1015.1
20210725093402 72 313 4.0 16.0 0.00 0.00 0.00 76 1015.2
20210725092403 73 294 7.0 14.0 0.00 0.00 0.00 75 1015.2
20210725091902 73 282 9.0 17.0 0.00 0.00 0.00 75 1015.0
20210725091402 74 265 7.0 14.0 0.00 0.00 0.00 75 1014.9
20210725090903 74 245 7.0 15.0 0.00 0.00 0.00 76 1014.8
20210725090403 74 259 6.0 12.0 0.00 0.00 0.00 76 1014.8
20210725085402 74 248 7.0 13.0 0.00 0.00 0.00 76 1014.8
20210725084902 74 234 6.0 12.0 0.00 0.00 0.00 76 1014.8
20210725082903 74 232 6.0 12.0 0.00 0.00 0.00 76 1014.9
20210725081903 74 226 9.0 15.0 0.00 0.00 0.00 76 1014.9
20210725081402 74 227 6.0 14.0 0.00 0.00 0.00 76 1014.8
20210725080403 74 229 5.0 12.0 0.00 0.00 0.00 76 1014.8
20210725075903 74 227 6.0 9.0 0.00 0.00 0.00 76 1014.9
20210725074902 74 231 6.0 10.0 0.00 0.00 0.00 76 1015.2
20210725074403 74 232 5.0 9.0 0.00 0.00 0.00 76 1015.2
20210725073403 74 231 5.0 12.0 0.00 0.00 0.00 76 1015.3
20210725072903 74 232 3.0 10.0 0.00 0.00 0.00 76 1015.4
20210725071903 74 239 6.0 13.0 0.00 0.00 0.00 77 1015.2
20210725071402 74 238 7.0 12.0 0.00 0.00 0.00 77 1015.2
20210725070903 74 231 4.0 12.0 0.00 0.00 0.00 77 1015.3
20210725065403 74 228 6.0 13.0 0.00 0.00 0.00 77 1015.6
20210725064902 74 200 5.0 13.0 0.00 0.00 0.00 77 1015.7
20210725063902 74 237 6.0 10.0 0.00 0.00 0.00 77 1015.9
20210725063403 74 233 5.0 12.0 0.00 0.00 0.00 77 1015.9
20210725062403 74 226 5.0 10.0 0.00 0.00 0.00 77 1015.9
20210725061903 74 233 5.0 14.0 0.00 0.00 0.00 77 1016.0
20210725060403 74 228 7.0 15.0 0.00 0.00 0.00 77 1016.2
20210725055902 74 215 7.0 14.0 0.00 0.00 0.00 77 1016.2
20210725055402 74 228 6.0 12.0 0.00 0.00 0.00 77 1016.3
20210725054403 74 231 7.0 14.0 0.00 0.00 0.00 77 1016.5
20210725053403 74 227 5.0 9.0 0.00 0.00 0.00 78 1016.5
20210725052903 74 216 3.0 12.0 0.00 0.00 0.00 78 1016.6
20210725051903 74 229 6.0 9.0 0.00 0.00 0.00 78 1016.6
20210725045903 74 213 2.0 8.0 0.00 0.00 0.00 79 1016.7
20210725045403 74 255 1.0 7.0 0.00 0.00 0.00 79 1016.7
20210725044903 74 208 2.0 7.0 0.00 0.00 0.00 78 1016.7
20210725044403 74 213 3.0 8.0 0.00 0.00 0.00 78 1016.8
20210725043903 74 251 1.0 6.0 0.00 0.00 0.00 78 1016.8
20210725041402 74 207 3.0 8.0 0.00 0.00 0.00 77 1016.6
20210725040402 74 221 6.0 9.0 0.00 0.00 0.00 77 1016.7
20210725035903 74 224 3.0 9.0 0.00 0.00 0.00 76 1016.7
20210725034904 74 218 5.0 12.0 0.00 0.00 0.00 76 1016.8
20210725033402 74 204 5.0 9.0 0.00 0.00 0.00 75 1016.9
20210725032902 74 214 5.0 10.0 0.00 0.00 0.00 75 1016.9
20210725031403 74 207 6.0 10.0 0.00 0.00 0.00 74 1016.7
20210725030902 74 211 4.0 9.0 0.00 0.00 0.00 74 1016.8
20210725024903 74 216 5.0 9.0 0.00 0.00 0.00 72 1017.1
20210725024403 74 204 5.0 8.0 0.00 0.00 0.00 72 1017.2
20210725023903 74 215 3.0 7.0 0.00 0.00 0.00 72 1017.3
20210725022403 74 206 5.0 10.0 0.00 0.00 0.00 72 1017.4
20210725020403 74 219 3.0 8.0 0.00 0.00 0.00 72 1017.7
20210725015403 74 206 3.0 6.0 0.00 0.00 0.00 72 1017.7
20210725014403 74 222 3.0 7.0 0.00 0.00 0.00 72 1017.7
20210725011902 75 210 5.0 7.0 0.00 0.00 0.00 72 1017.6
20210725010902 74 210 4.0 9.0 0.00 0.00 0.00 71 1017.5